createdAt,value
2024-01-09T00:00:19.405Z,103038.38
2024-01-09T00:02:47.559Z,103043.59
2024-01-09T00:05:17.262Z,103038.31
2024-01-09T00:07:45.310Z,103061.28
2024-01-09T00:10:13.455Z,103060.31
2024-01-09T00:12:41.574Z,103034.72
2024-01-09T00:15:11.247Z,103024.00
2024-01-09T00:17:39.413Z,103014.38
2024-01-09T00:20:08.718Z,103028.47
2024-01-09T00:22:38.177Z,103040.88
2024-01-09T00:25:08.041Z,103051.41
2024-01-09T00:27:36.250Z,103028.38
2024-01-09T00:30:04.484Z,103028.25
2024-01-09T00:32:32.756Z,103046.97
2024-01-09T00:35:00.908Z,103056.59
2024-01-09T00:37:28.903Z,102997.19
2024-01-09T00:39:58.454Z,103051.25
2024-01-09T00:42:26.575Z,103053.91
2024-01-09T00:44:54.712Z,103022.00
2024-01-09T00:47:22.952Z,102985.78
2024-01-09T00:49:51.390Z,103057.53
2024-01-09T00:52:19.508Z,103024.81
2024-01-09T00:54:47.673Z,103054.97
2024-01-09T00:57:19.303Z,103029.22
2024-01-09T00:59:48.072Z,103037.19
2024-01-09T01:02:16.254Z,103054.97
2024-01-09T01:04:44.359Z,103031.88
2024-01-09T01:07:12.757Z,103061.13
2024-01-09T01:09:40.839Z,103064.63
2024-01-09T01:12:09.074Z,103051.34
2024-01-09T01:14:38.728Z,103050.59
2024-01-09T01:17:07.317Z,103055.94
2024-01-09T01:19:35.440Z,103044.47
2024-01-09T01:22:03.612Z,103034.69
2024-01-09T01:24:31.716Z,103017.00
2024-01-09T01:26:59.873Z,103059.56
2024-01-09T01:29:29.313Z,103045.53
2024-01-09T01:31:58.854Z,103047.34
2024-01-09T01:34:26.983Z,103021.66
2024-01-09T01:36:55.449Z,103036.72
2024-01-09T01:39:23.630Z,103049.16
2024-01-09T01:41:51.713Z,103009.25
2024-01-09T01:44:19.838Z,103057.06
2024-01-09T01:46:48.311Z,103035.91
2024-01-09T01:49:19.967Z,103041.25
2024-01-09T01:51:49.002Z,103012.88
2024-01-09T01:54:17.019Z,103035.06
2024-01-09T01:56:45.896Z,103035.97
2024-01-09T01:59:16.364Z,103037.63
2024-01-09T02:01:44.862Z,103036.72
2024-01-09T02:04:13.026Z,103040.03
2024-01-09T02:06:42.568Z,103031.88
2024-01-09T02:09:10.662Z,103048.53
2024-01-09T02:11:38.892Z,103039.59
2024-01-09T02:14:07.067Z,103033.31
2024-01-09T02:16:35.177Z,103035.75
2024-01-09T02:19:03.262Z,103043.63
2024-01-09T02:21:31.471Z,103042.66
2024-01-09T02:24:00.990Z,103028.31
2024-01-09T02:26:46.867Z,103042.47
2024-01-09T02:29:24.122Z,103043.22
2024-01-09T02:31:54.075Z,103015.72
2024-01-09T02:34:22.466Z,103030.75
2024-01-09T02:36:50.733Z,103024.44
2024-01-09T02:39:18.833Z,103042.13
2024-01-09T02:41:48.124Z,103026.06
2024-01-09T02:44:16.278Z,103038.50
2024-01-09T02:46:44.353Z,103026.06
2024-01-09T02:49:14.841Z,103041.06
2024-01-09T02:51:43.518Z,103033.13
2024-01-09T02:54:11.738Z,103032.22
2024-01-09T02:56:39.935Z,103031.28
2024-01-09T02:59:08.066Z,103021.53
2024-01-09T03:01:36.164Z,103023.41
2024-01-09T03:04:04.232Z,103012.69
2024-01-09T03:06:33.820Z,103028.63
2024-01-09T03:09:01.983Z,102993.16
2024-01-09T03:11:30.016Z,102998.41
2024-01-09T03:13:58.033Z,103013.69
2024-01-09T03:16:26.159Z,103023.34
2024-01-09T03:18:54.283Z,103008.25
2024-01-09T03:21:22.782Z,103011.91
2024-01-09T03:23:52.238Z,102966.66
2024-01-09T03:26:20.876Z,103002.97
2024-01-09T03:28:49.494Z,103005.66
2024-01-09T03:31:21.456Z,102987.09
2024-01-09T03:33:49.654Z,103012.72
2024-01-09T03:36:17.795Z,103012.72
2024-01-09T03:38:46.437Z,103006.56
2024-01-09T03:41:15.994Z,103003.84
2024-01-09T03:43:44.047Z,103010.88
2024-01-09T03:46:12.156Z,103012.59
2024-01-09T03:48:40.325Z,102964.75
2024-01-09T03:51:08.487Z,103008.22
2024-01-09T03:53:36.888Z,103003.81
2024-01-09T03:56:05.246Z,102980.84
2024-01-09T03:58:34.734Z,102986.22
2024-01-09T04:01:03.952Z,103003.84
2024-01-09T04:03:32.135Z,103002.97
2024-01-09T04:06:00.244Z,102986.16
2024-01-09T04:08:28.453Z,103002.06
2024-01-09T04:10:56.589Z,102953.31
2024-01-09T04:13:24.705Z,102971.09
2024-01-09T04:15:54.224Z,102968.38
2024-01-09T04:18:22.593Z,102985.97
2024-01-09T04:20:50.854Z,103007.34
2024-01-09T04:23:19.079Z,102994.06
2024-01-09T04:25:47.133Z,102994.16
2024-01-09T04:28:16.830Z,102991.44
2024-01-09T04:30:45.265Z,102989.78
2024-01-09T04:33:14.951Z,102916.22
2024-01-09T04:35:43.231Z,102993.28
2024-01-09T04:38:11.436Z,102996.72
2024-01-09T04:40:39.452Z,103001.06
2024-01-09T04:43:07.559Z,102988.72
2024-01-09T04:45:35.963Z,102991.28
2024-01-09T04:48:04.278Z,102993.06
2024-01-09T04:50:33.940Z,102993.06
2024-01-09T04:53:02.073Z,103002.78
2024-01-09T04:55:30.099Z,102974.56
2024-01-09T04:57:58.157Z,102981.53
2024-01-09T05:00:26.278Z,103005.47
2024-01-09T05:02:55.336Z,103000.94
2024-01-09T05:05:23.832Z,102996.56
2024-01-09T05:07:53.399Z,103015.06
2024-01-09T05:10:21.477Z,102970.94
2024-01-09T05:12:49.496Z,103007.97
2024-01-09T05:15:17.803Z,103002.63
2024-01-09T05:17:46.068Z,103003.50
2024-01-09T05:20:14.295Z,102998.19
2024-01-09T05:22:42.380Z,102996.34
2024-01-09T05:25:12.247Z,103010.31
2024-01-09T05:27:40.241Z,102957.94
2024-01-09T05:30:10.164Z,103010.19
2024-01-09T05:32:38.571Z,102997.78
2024-01-09T05:35:09.369Z,102998.75
2024-01-09T05:37:37.629Z,102997.72
2024-01-09T05:40:07.340Z,102981.84
2024-01-09T05:42:37.097Z,102992.50
2024-01-09T05:45:06.077Z,103004.03
2024-01-09T05:47:34.291Z,103004.03
2024-01-09T05:50:02.836Z,102964.19
2024-01-09T05:52:30.958Z,103002.31
2024-01-09T05:54:59.077Z,103000.50
2024-01-09T05:57:27.164Z,102991.56
2024-01-09T05:59:56.679Z,103005.91
2024-01-09T06:02:24.880Z,103007.66
2024-01-09T06:04:53.013Z,103009.50
2024-01-09T06:07:22.039Z,102986.59
2024-01-09T06:09:50.240Z,103007.06
2024-01-09T06:12:18.352Z,103010.66
2024-01-09T06:14:46.598Z,103010.75
2024-01-09T06:17:16.169Z,102983.34
2024-01-09T06:19:44.317Z,102988.81
2024-01-09T06:22:13.435Z,103003.09
2024-01-09T06:24:41.475Z,103007.63
2024-01-09T06:27:09.533Z,102979.28
2024-01-09T06:29:37.743Z,103002.53
2024-01-09T06:32:06.469Z,102984.84
2024-01-09T06:34:37.912Z,102996.38
2024-01-09T06:37:06.547Z,103001.81
2024-01-09T06:39:34.648Z,102987.69
2024-01-09T06:42:03.384Z,103007.16
2024-01-09T06:44:31.545Z,103011.63
2024-01-09T06:46:59.873Z,103008.22
2024-01-09T06:49:27.976Z,103003.94
2024-01-09T06:51:57.838Z,103007.56
2024-01-09T06:54:26.143Z,103005.91
2024-01-09T06:56:54.283Z,103009.53
2024-01-09T06:59:22.509Z,103008.75
2024-01-09T07:01:50.582Z,103007.97
2024-01-09T07:04:18.829Z,103007.97
2024-01-09T07:06:47.176Z,103007.97
2024-01-09T07:09:16.776Z,102997.28
2024-01-09T07:11:44.932Z,102977.84
2024-01-09T07:14:13.342Z,102994.63
2024-01-09T07:16:41.523Z,103002.56
2024-01-09T07:19:10.136Z,103028.22
2024-01-09T07:21:38.491Z,103018.59
2024-01-09T07:24:07.346Z,102985.81
2024-01-09T07:26:42.683Z,103021.97
2024-01-09T07:29:11.971Z,103024.63
2024-01-09T07:31:40.136Z,103017.53
2024-01-09T07:34:08.316Z,103019.25
2024-01-09T07:36:36.526Z,102989.00
2024-01-09T07:39:06.869Z,103024.38
2024-01-09T07:41:36.094Z,103019.94
2024-01-09T07:44:05.731Z,103015.41
2024-01-09T07:46:34.123Z,103021.50
2024-01-09T07:49:02.323Z,103021.41
2024-01-09T07:51:30.457Z,103012.56
2024-01-09T07:53:58.705Z,103030.06
2024-01-09T07:56:26.896Z,103029.97
2024-01-09T07:58:55.001Z,103000.72
2024-01-09T08:01:25.677Z,103016.59
2024-01-09T08:03:53.919Z,103016.44
2024-01-09T08:06:22.766Z,103005.88
2024-01-09T08:08:51.280Z,103036.75
2024-01-09T08:11:19.514Z,103027.13
2024-01-09T08:13:48.731Z,103026.31
2024-01-09T08:16:17.257Z,103035.09
2024-01-09T08:18:46.868Z,103028.22
2024-01-09T08:21:15.514Z,103026.59
2024-01-09T08:23:43.992Z,103024.88
2024-01-09T08:26:14.342Z,103016.97
2024-01-09T08:28:42.612Z,102982.50
2024-01-09T08:31:10.901Z,102996.81
2024-01-09T08:33:39.690Z,103029.66
2024-01-09T08:36:09.890Z,103029.66
2024-01-09T08:38:37.995Z,103026.13
2024-01-09T08:41:07.161Z,103017.22
2024-01-09T08:43:35.325Z,102957.88
2024-01-09T08:46:03.676Z,103008.56
2024-01-09T08:48:32.143Z,103027.09
2024-01-09T08:51:00.700Z,103040.34
2024-01-09T08:53:31.061Z,103026.25
2024-01-09T08:55:59.296Z,103034.25
2024-01-09T08:58:27.357Z,103027.09
2024-01-09T09:00:55.532Z,103034.22
2024-01-09T09:03:24.031Z,103036.78
2024-01-09T09:05:52.467Z,103041.13
2024-01-09T09:08:22.470Z,102977.31
2024-01-09T09:10:52.131Z,103037.63
2024-01-09T09:13:20.614Z,103015.47
2024-01-09T09:15:48.646Z,103031.50
2024-01-09T09:18:16.968Z,103038.72
2024-01-09T09:20:45.333Z,103031.78
2024-01-09T09:23:13.490Z,103030.09
2024-01-09T09:25:42.225Z,102990.41
2024-01-09T09:28:11.770Z,103021.50
2024-01-09T09:30:40.658Z,103026.94
2024-01-09T09:33:09.787Z,103015.50
2024-01-09T09:35:38.327Z,103040.34
2024-01-09T09:38:06.660Z,103013.91
2024-01-09T09:40:34.730Z,103025.41
2024-01-09T09:43:04.368Z,103045.81
2024-01-09T09:45:33.893Z,103045.88
2024-01-09T09:48:02.144Z,103037.81
2024-01-09T09:50:30.256Z,103047.63
2024-01-09T09:52:58.087Z,103042.34
2024-01-09T09:55:26.209Z,103056.56
2024-01-09T09:57:54.235Z,103053.16
2024-01-09T10:00:22.339Z,103057.72
2024-01-09T10:02:51.884Z,103008.34
2024-01-09T10:05:20.645Z,102961.53
2024-01-09T10:07:51.664Z,103057.28
2024-01-09T10:10:20.392Z,103031.66
2024-01-09T10:12:49.401Z,103038.00
2024-01-09T10:15:18.799Z,103055.75
2024-01-09T10:17:47.531Z,103053.97
2024-01-09T10:20:17.493Z,103054.00
2024-01-09T10:22:45.634Z,103062.13
2024-01-09T10:25:14.562Z,103023.16
2024-01-09T10:27:43.170Z,103060.41
2024-01-09T10:30:12.381Z,103075.50
2024-01-09T10:32:45.091Z,103049.09
2024-01-09T10:35:14.481Z,103070.28
2024-01-09T10:37:45.364Z,103016.34
2024-01-09T10:40:14.554Z,103077.31
2024-01-09T10:42:49.030Z,103072.88
2024-01-09T10:45:17.888Z,103077.16
2024-01-09T10:47:46.960Z,103077.97
2024-01-09T10:50:15.419Z,103090.22
2024-01-09T10:52:44.999Z,103065.44
2024-01-09T10:55:13.296Z,103062.06
2024-01-09T10:57:41.452Z,103070.88
2024-01-09T11:00:11.764Z,103066.50
2024-01-09T11:02:40.075Z,103064.69
2024-01-09T11:05:09.467Z,103060.19
2024-01-09T11:07:38.210Z,103069.88
2024-01-09T11:10:11.650Z,103060.09
2024-01-09T11:12:43.951Z,103057.34
2024-01-09T11:15:14.548Z,103059.97
2024-01-09T11:17:43.348Z,103066.09
2024-01-09T11:20:12.156Z,103058.97
2024-01-09T11:22:40.887Z,103060.66
2024-01-09T11:25:17.047Z,103051.84
2024-01-09T11:27:49.130Z,103050.81
2024-01-09T11:30:18.114Z,103041.19
2024-01-09T11:32:46.369Z,103053.53
2024-01-09T11:35:15.816Z,103044.72
2024-01-09T11:37:45.444Z,102999.44
2024-01-09T11:40:15.681Z,102997.81
2024-01-09T11:42:45.839Z,103045.59
2024-01-09T11:45:14.217Z,103040.34
2024-01-09T11:47:42.669Z,103047.47
2024-01-09T11:50:11.910Z,103036.00
2024-01-09T11:52:40.935Z,103040.50
2024-01-09T11:55:09.919Z,103003.41
2024-01-09T11:57:40.924Z,103035.41
2024-01-09T12:00:10.093Z,103022.13
2024-01-09T12:02:38.781Z,103005.31
2024-01-09T12:05:07.189Z,103031.78
2024-01-09T12:07:35.923Z,103027.28
2024-01-09T12:10:09.823Z,103038.84
2024-01-09T12:12:46.578Z,103016.72
2024-01-09T12:15:19.867Z,103028.28
2024-01-09T12:17:54.059Z,103013.28
2024-01-09T12:20:22.516Z,103023.97
2024-01-09T12:22:50.654Z,103016.13
2024-01-09T12:25:19.458Z,103013.44
2024-01-09T12:27:49.090Z,102964.72
2024-01-09T12:30:17.936Z,103022.28
2024-01-09T12:32:46.231Z,103014.38
2024-01-09T12:35:14.361Z,103013.53
2024-01-09T12:37:45.194Z,102967.56
2024-01-09T12:40:17.759Z,103003.13
2024-01-09T12:42:46.155Z,103011.16
2024-01-09T12:45:16.244Z,102990.00
2024-01-09T12:47:44.787Z,102995.44
2024-01-09T12:50:13.451Z,102980.50
2024-01-09T12:52:41.619Z,102967.34
2024-01-09T12:55:12.466Z,102964.78
2024-01-09T12:57:40.657Z,102976.38
2024-01-09T13:00:11.908Z,102964.19
2024-01-09T13:02:41.958Z,102959.81
2024-01-09T13:05:11.095Z,102950.84
2024-01-09T13:07:39.305Z,102949.06
2024-01-09T13:10:09.228Z,102925.28
2024-01-09T13:12:37.680Z,102946.59
2024-01-09T13:15:06.418Z,102939.66
2024-01-09T13:17:34.889Z,102942.28
2024-01-09T13:20:08.378Z,102929.03
2024-01-09T13:23:46.771Z,102928.19
2024-01-09T13:25:25.015Z,102936.13
2024-01-09T13:27:53.274Z,102918.41
2024-01-09T13:30:47.424Z,102912.22
2024-01-09T13:33:12.668Z,102913.09
2024-01-09T13:35:42.136Z,102925.47
2024-01-09T13:38:10.458Z,102923.66
2024-01-09T13:40:38.823Z,102875.94
2024-01-09T13:43:07.568Z,102932.47
2024-01-09T13:45:35.951Z,102937.75
2024-01-09T13:48:04.210Z,102913.88
2024-01-09T13:51:48.229Z,102931.50
2024-01-09T13:53:24.337Z,102928.81
2024-01-09T13:55:54.415Z,102946.41
2024-01-09T13:58:22.518Z,102899.56
2024-01-09T14:00:50.706Z,102933.09
2024-01-09T14:03:19.530Z,102903.00
2024-01-09T14:05:47.874Z,102919.81
2024-01-09T14:08:16.270Z,102914.53
2024-01-09T14:10:47.772Z,102892.41
2024-01-09T14:13:18.326Z,102862.34
2024-01-09T14:15:46.513Z,102911.84
2024-01-09T14:18:14.640Z,102905.59
2024-01-09T14:20:42.713Z,102920.56
2024-01-09T14:23:10.947Z,102896.69
2024-01-09T14:25:41.776Z,102914.38
2024-01-09T14:28:11.929Z,102848.81
2024-01-09T14:30:40.087Z,102910.81
2024-01-09T14:33:08.236Z,102913.44
2024-01-09T14:35:38.353Z,102892.19
2024-01-09T14:38:06.648Z,102918.69
2024-01-09T14:40:35.508Z,102914.31
2024-01-09T14:43:03.660Z,102913.41
2024-01-09T14:45:33.325Z,102900.13
2024-01-09T14:48:01.885Z,102922.19
2024-01-09T14:50:30.111Z,102917.81
2024-01-09T14:52:58.176Z,102902.81
2024-01-09T14:55:26.461Z,102913.41
2024-01-09T14:57:54.596Z,102892.16
2024-01-09T15:00:22.972Z,102920.47
2024-01-09T15:02:55.698Z,102923.13
2024-01-09T15:05:24.093Z,102910.81
2024-01-09T15:07:53.972Z,102911.72
2024-01-09T15:10:22.046Z,102919.63
2024-01-09T15:12:51.274Z,102886.06
2024-01-09T15:15:19.908Z,102908.16
2024-01-09T15:17:49.226Z,102812.63
2024-01-09T15:20:19.283Z,102905.44
2024-01-09T15:22:47.457Z,102888.69
2024-01-09T15:25:15.803Z,102918.66
2024-01-09T15:27:44.150Z,102908.94
2024-01-09T15:30:13.239Z,102902.72
2024-01-09T15:32:41.699Z,102917.66
2024-01-09T15:35:12.935Z,102914.97
2024-01-09T15:37:43.338Z,102905.19
2024-01-09T15:40:15.188Z,102914.81
2024-01-09T15:42:43.859Z,102904.13
2024-01-09T15:45:13.537Z,102897.03
2024-01-09T15:47:42.755Z,102905.78
2024-01-09T15:50:12.066Z,102917.25
2024-01-09T15:52:40.326Z,102914.56
2024-01-09T15:55:10.327Z,102889.78
2024-01-09T15:57:38.424Z,102905.66
2024-01-09T16:00:08.384Z,102886.16
2024-01-09T16:02:36.450Z,102905.59
2024-01-09T16:05:06.788Z,102916.16
2024-01-09T16:07:35.586Z,102913.53
2024-01-09T16:10:05.132Z,102916.97
2024-01-09T16:12:34.867Z,102899.25
2024-01-09T16:15:02.966Z,102860.31
2024-01-09T16:17:31.398Z,102912.47
2024-01-09T16:20:00.351Z,102916.84
2024-01-09T16:22:28.739Z,102908.03
2024-01-09T16:24:57.746Z,102892.06
2024-01-09T16:27:26.162Z,102918.50
2024-01-09T16:29:56.301Z,102918.53
2024-01-09T16:32:24.694Z,102921.13
2024-01-09T16:34:53.507Z,102921.06
2024-01-09T16:37:21.667Z,102895.44
2024-01-09T16:39:49.762Z,102912.25
2024-01-09T16:42:17.794Z,102918.38
2024-01-09T16:44:46.037Z,102903.44
2024-01-09T16:47:16.808Z,102890.97
2024-01-09T16:49:45.274Z,102914.84
2024-01-09T16:52:13.360Z,102911.31
2024-01-09T16:54:41.478Z,102913.94
2024-01-09T16:57:10.758Z,102912.09
2024-01-09T16:59:39.780Z,102906.81
2024-01-09T17:02:07.967Z,102906.75
2024-01-09T17:04:37.604Z,102905.88
2024-01-09T17:07:06.127Z,102882.91
2024-01-09T17:09:34.253Z,102901.47
2024-01-09T17:12:02.332Z,102907.59
2024-01-09T17:14:34.165Z,102888.06
2024-01-09T17:17:02.345Z,102906.69
2024-01-09T17:19:30.467Z,102903.22
2024-01-09T17:22:00.085Z,102903.16
2024-01-09T17:24:29.946Z,102907.59
2024-01-09T17:26:59.633Z,102903.22
2024-01-09T17:29:27.776Z,102892.56
2024-01-09T17:31:55.960Z,102900.50
2024-01-09T17:34:24.085Z,102915.44
2024-01-09T17:36:53.878Z,102883.63
2024-01-09T17:39:23.628Z,102910.13
2024-01-09T17:41:51.697Z,102911.06
2024-01-09T17:44:19.948Z,102898.59
2024-01-09T17:46:48.165Z,102899.50
2024-01-09T17:49:16.269Z,102907.59
2024-01-09T17:51:44.442Z,102912.03
2024-01-09T17:54:12.659Z,102916.41
2024-01-09T17:56:42.083Z,102917.31
2024-01-09T17:59:10.329Z,102926.97
2024-01-09T18:01:45.453Z,102922.59
2024-01-09T18:04:17.255Z,102926.16
2024-01-09T18:06:46.272Z,102927.00
2024-01-09T18:09:22.534Z,102916.47
2024-01-09T18:11:52.939Z,102914.72
2024-01-09T18:14:21.062Z,102921.69
2024-01-09T18:16:49.140Z,102932.22
2024-01-09T18:19:18.229Z,102923.34
2024-01-09T18:21:46.400Z,102924.13
2024-01-09T18:24:14.519Z,102924.13
2024-01-09T18:26:53.028Z,102918.91
2024-01-09T18:29:24.408Z,102910.06
2024-01-09T18:31:54.590Z,102914.44
2024-01-09T18:34:23.430Z,102922.31
2024-01-09T18:36:51.772Z,102920.59
2024-01-09T18:39:20.416Z,102924.00
2024-01-09T18:41:48.556Z,102917.91
2024-01-09T18:44:17.394Z,102914.38
2024-01-09T18:46:47.163Z,102924.06
2024-01-09T18:49:15.315Z,102926.63
2024-01-09T18:51:44.504Z,102938.06
2024-01-09T18:54:12.953Z,102918.59
2024-01-09T18:56:41.972Z,102923.03
2024-01-09T18:59:11.676Z,102927.47
2024-01-09T19:01:40.727Z,102924.00
2024-01-09T19:04:11.124Z,102919.63
2024-01-09T19:06:39.369Z,102890.38
2024-01-09T19:09:13.006Z,102914.22
2024-01-09T19:11:41.299Z,102876.19
2024-01-09T19:14:11.282Z,102882.34
2024-01-09T19:16:44.880Z,102911.59
2024-01-09T19:19:16.739Z,102909.81
2024-01-09T19:21:45.650Z,102900.03
2024-01-09T19:24:13.787Z,102924.72
2024-01-09T19:26:44.948Z,102895.47
2024-01-09T19:29:13.751Z,102923.81
2024-01-09T19:31:43.311Z,102924.63
2024-01-09T19:34:11.911Z,102909.53
2024-01-09T19:36:45.488Z,102917.56
2024-01-09T19:39:13.573Z,102895.38
2024-01-09T19:41:41.791Z,102927.22
2024-01-09T19:44:10.131Z,102918.44
2024-01-09T19:46:41.213Z,102923.72
2024-01-09T19:49:09.387Z,102940.34
2024-01-09T19:51:37.510Z,102943.91
2024-01-09T19:54:10.809Z,102950.06
2024-01-09T19:56:40.979Z,102947.38
2024-01-09T19:59:09.243Z,102938.44
2024-01-09T20:01:37.483Z,102934.88
2024-01-09T20:04:05.950Z,102943.78
2024-01-09T20:06:35.324Z,102955.22
2024-01-09T20:09:05.064Z,102946.41
2024-01-09T20:11:34.900Z,102963.13
2024-01-09T20:14:05.829Z,102948.06
2024-01-09T20:16:34.013Z,102935.47
2024-01-09T20:19:02.211Z,102965.72
2024-01-09T20:21:30.501Z,102962.13
2024-01-09T20:23:58.580Z,102969.19
2024-01-09T20:26:26.933Z,102953.19
2024-01-09T20:28:56.785Z,102962.06
2024-01-09T20:31:26.008Z,102969.88
2024-01-09T20:33:54.144Z,102978.63
2024-01-09T20:36:23.073Z,102965.34
2024-01-09T20:38:52.089Z,102983.97
2024-01-09T20:41:26.322Z,102989.22
2024-01-09T20:43:54.740Z,102988.34
2024-01-09T20:46:24.684Z,102959.19
2024-01-09T20:48:52.874Z,102986.66
2024-01-09T20:51:21.048Z,102976.06
2024-01-09T20:53:49.412Z,102976.13
2024-01-09T20:56:17.493Z,102973.41
2024-01-09T20:58:45.638Z,102959.28
2024-01-09T21:01:13.891Z,102953.84
2024-01-09T21:03:43.574Z,102978.69
2024-01-09T21:06:11.818Z,102966.19
2024-01-09T21:08:41.064Z,102976.81
2024-01-09T21:11:09.322Z,102972.28
2024-01-09T21:13:37.394Z,102974.06
2024-01-09T21:16:05.902Z,102981.06
2024-01-09T21:18:34.251Z,102979.34
2024-01-09T21:21:03.945Z,102995.13
2024-01-09T21:23:38.278Z,102982.91
2024-01-09T21:26:11.235Z,102992.59
2024-01-09T21:28:39.421Z,102978.47
2024-01-09T21:31:07.820Z,102980.16
2024-01-09T21:33:36.355Z,102976.63
2024-01-09T21:36:06.474Z,102967.84
2024-01-09T21:38:34.572Z,102966.91
2024-01-09T21:41:03.300Z,102979.41
2024-01-09T21:43:31.482Z,102966.25
2024-01-09T21:45:59.612Z,102958.41
2024-01-09T21:48:27.988Z,102970.78
2024-01-09T21:50:57.118Z,102935.41
2024-01-09T21:53:26.666Z,102975.22
2024-01-09T21:55:54.851Z,102977.88
2024-01-09T21:58:23.119Z,102939.88
2024-01-09T22:00:51.223Z,102964.75
2024-01-09T22:03:19.967Z,102977.09
2024-01-09T22:05:48.192Z,102965.75
2024-01-09T22:08:16.384Z,102982.53
2024-01-09T22:10:46.505Z,102983.38
2024-01-09T22:13:14.705Z,102978.16
2024-01-09T22:15:47.745Z,102975.53
2024-01-09T22:18:16.338Z,102972.03
2024-01-09T22:20:44.733Z,102974.63
2024-01-09T22:23:13.029Z,102969.34
2024-01-09T22:25:41.173Z,102972.03
2024-01-09T22:28:12.489Z,102975.53
2024-01-09T22:30:41.839Z,102985.94
2024-01-09T22:33:11.038Z,102988.56
2024-01-09T22:35:42.397Z,102979.75
2024-01-09T22:38:10.584Z,102972.44
2024-01-09T22:40:38.770Z,102981.41
2024-01-09T22:43:09.032Z,102979.59
2024-01-09T22:45:38.581Z,102986.53
2024-01-09T22:48:07.758Z,102980.41
2024-01-09T22:50:36.637Z,102978.63
2024-01-09T22:53:05.082Z,102944.81
2024-01-09T22:55:33.286Z,102947.44
2024-01-09T22:58:02.240Z,102965.22
2024-01-09T23:00:32.036Z,102974.91
2024-01-09T23:03:01.586Z,102932.38
2024-01-09T23:05:29.962Z,102977.69
2024-01-09T23:07:58.296Z,102973.22
2024-01-09T23:10:26.409Z,102976.72
2024-01-09T23:12:54.442Z,102989.88
2024-01-09T23:15:22.702Z,102969.66
2024-01-09T23:17:50.948Z,102978.28
2024-01-09T23:20:20.553Z,102984.53
2024-01-09T23:22:48.701Z,102985.44
2024-01-09T23:25:18.060Z,102978.38
2024-01-09T23:27:46.217Z,102986.34
2024-01-09T23:30:14.871Z,102985.53
2024-01-09T23:32:43.104Z,102989.06
2024-01-09T23:35:11.916Z,102959.03
2024-01-09T23:37:41.397Z,102962.56
2024-01-09T23:40:10.330Z,102974.19
2024-01-09T23:42:38.381Z,102971.59
2024-01-09T23:45:07.044Z,102971.53
2024-01-09T23:47:35.111Z,102978.69
2024-01-09T23:50:03.388Z,102968.16
2024-01-09T23:52:31.673Z,102987.63
2024-01-09T23:55:01.229Z,102981.56
2024-01-09T23:57:29.308Z,102932.94
2024-01-09T23:59:57.489Z,102969.34
